createdAt,value
2019-05-03T00:02:08.539Z,7.87
2019-05-03T00:04:47.583Z,9.27
2019-05-03T00:07:18.866Z,8.87
2019-05-03T00:09:48.829Z,9.60
2019-05-03T00:12:27.909Z,9.47
2019-05-03T00:15:14.454Z,9.50
2019-05-03T00:17:42.914Z,9.40
2019-05-03T00:20:15.677Z,9.27
2019-05-03T00:22:44.247Z,9.33
2019-05-03T00:25:15.701Z,9.37
2019-05-03T00:27:47.310Z,9.00
2019-05-03T00:30:18.105Z,8.67
2019-05-03T00:32:52.429Z,9.77
2019-05-03T00:35:37.479Z,9.23
2019-05-03T00:38:07.633Z,9.57
2019-05-03T00:40:39.096Z,9.47
2019-05-03T00:43:16.698Z,8.40
2019-05-03T00:45:45.162Z,8.17
2019-05-03T00:48:13.543Z,8.03
2019-05-03T00:50:45.106Z,8.13
2019-05-03T00:53:16.548Z,8.13
2019-05-03T00:55:45.300Z,7.40
2019-05-03T00:58:19.694Z,7.80
2019-05-03T01:00:52.438Z,7.90
2019-05-03T01:03:28.730Z,8.67
2019-05-03T01:05:59.861Z,9.30
2019-05-03T01:08:30.062Z,9.83
2019-05-03T01:10:58.505Z,9.30
2019-05-03T01:13:31.910Z,10.47
2019-05-03T01:16:07.170Z,10.13
2019-05-03T01:18:35.632Z,10.93
2019-05-03T01:21:07.902Z,11.17
2019-05-03T01:23:38.658Z,10.73
2019-05-03T01:26:11.795Z,8.60
2019-05-03T01:28:43.164Z,7.03
2019-05-03T01:31:17.804Z,5.53
2019-05-03T01:33:48.987Z,5.87
2019-05-03T01:36:26.089Z,5.90
2019-05-03T01:38:54.533Z,6.20
2019-05-03T01:41:27.751Z,5.93
2019-05-03T01:43:57.837Z,6.17
2019-05-03T01:46:27.699Z,6.20
2019-05-03T01:49:05.182Z,6.37
2019-05-03T01:51:53.829Z,6.60
2019-05-03T01:54:23.825Z,6.20
2019-05-03T01:56:58.700Z,6.37
2019-05-03T01:59:24.130Z,6.77
2019-05-03T02:02:02.150Z,7.20
2019-05-03T02:04:36.257Z,7.20
2019-05-03T02:07:07.856Z,6.80
2019-05-03T02:09:38.980Z,7.00
2019-05-03T02:12:12.627Z,7.00
2019-05-03T02:14:43.529Z,7.37
2019-05-03T02:17:12.416Z,6.77
2019-05-03T02:19:42.193Z,6.80
2019-05-03T02:22:12.911Z,6.73
2019-05-03T02:24:42.195Z,7.53
2019-05-03T02:27:12.749Z,7.00
2019-05-03T02:29:41.834Z,7.80
2019-05-03T02:32:12.945Z,8.03
2019-05-03T02:34:43.554Z,7.20
2019-05-03T02:37:16.464Z,7.87
2019-05-03T02:39:46.509Z,7.67
2019-05-03T02:42:16.158Z,7.53
2019-05-03T02:44:46.175Z,8.47
2019-05-03T02:47:16.933Z,8.23
2019-05-03T02:49:56.173Z,7.27
2019-05-03T02:52:38.232Z,7.87
2019-05-03T02:55:11.417Z,7.20
2019-05-03T02:57:46.244Z,7.33
2019-05-03T03:00:16.321Z,7.37
2019-05-03T03:02:48.510Z,7.70
2019-05-03T03:05:17.646Z,7.30
2019-05-03T03:07:49.463Z,7.27
2019-05-03T03:10:17.920Z,7.80
2019-05-03T03:12:49.418Z,7.77
2019-05-03T03:15:20.804Z,6.57
2019-05-03T03:17:51.932Z,7.80
2019-05-03T03:20:20.386Z,7.53
2019-05-03T03:22:55.604Z,7.37
2019-05-03T03:25:28.849Z,8.33
2019-05-03T03:28:00.653Z,7.13
2019-05-03T03:30:48.597Z,7.40
2019-05-03T03:33:18.101Z,7.30
2019-05-03T03:35:50.421Z,8.33
2019-05-03T03:38:20.582Z,7.63
2019-05-03T03:40:55.538Z,7.97
2019-05-03T03:43:26.437Z,8.87
2019-05-03T03:45:59.790Z,8.47
2019-05-03T03:48:31.343Z,9.17
2019-05-03T03:51:05.148Z,8.57
2019-05-03T03:53:36.057Z,9.20
2019-05-03T03:56:07.780Z,9.17
2019-05-03T03:58:37.981Z,9.50
2019-05-03T04:01:06.575Z,8.80
2019-05-03T04:03:41.370Z,9.43
2019-05-03T04:06:11.458Z,9.83
2019-05-03T04:08:41.111Z,9.70
2019-05-03T04:11:09.790Z,9.00
2019-05-03T04:13:41.214Z,9.13
2019-05-03T04:16:27.397Z,9.50
2019-05-03T04:19:05.827Z,9.13
2019-05-03T04:21:35.864Z,8.80
2019-05-03T04:24:06.124Z,8.73
2019-05-03T04:26:37.468Z,9.07
2019-05-03T04:29:05.993Z,8.67
2019-05-03T04:31:36.838Z,8.43
2019-05-03T04:34:06.704Z,7.83
2019-05-03T04:36:35.832Z,8.83
2019-05-03T04:39:06.677Z,7.93
2019-05-03T04:41:35.707Z,7.30
2019-05-03T04:44:08.641Z,6.87
2019-05-03T04:46:38.963Z,8.07
2019-05-03T04:49:09.184Z,8.73
2019-05-03T04:51:46.242Z,8.90
2019-05-03T04:54:21.413Z,9.27
2019-05-03T04:56:49.850Z,10.23
2019-05-03T04:59:18.271Z,10.70
2019-05-03T05:01:46.686Z,12.20
2019-05-03T05:04:19.955Z,11.33
2019-05-03T05:06:49.378Z,12.20
2019-05-03T05:09:17.780Z,11.03
2019-05-03T05:11:46.214Z,12.20
2019-05-03T05:14:18.181Z,12.17
2019-05-03T05:16:46.832Z,11.53
2019-05-03T05:19:25.296Z,12.23
2019-05-03T05:22:15.512Z,12.50
2019-05-03T05:24:44.952Z,12.67
2019-05-03T05:27:21.137Z,13.03
2019-05-03T05:29:51.196Z,13.73
2019-05-03T05:32:19.715Z,12.93
2019-05-03T05:34:48.159Z,13.40
2019-05-03T05:37:16.548Z,14.20
2019-05-03T05:39:45.044Z,14.30
2019-05-03T05:42:14.902Z,14.67
2019-05-03T05:44:45.410Z,13.87
2019-05-03T05:47:34.538Z,12.73
2019-05-03T05:49:56.747Z,12.10
2019-05-03T05:52:25.127Z,14.10
2019-05-03T05:55:01.455Z,12.17
2019-05-03T05:57:31.517Z,11.97
2019-05-03T06:00:10.821Z,12.93
2019-05-03T06:02:42.403Z,12.60
2019-05-03T06:05:14.788Z,12.40
2019-05-03T06:07:45.207Z,13.43
2019-05-03T06:10:16.726Z,12.50
2019-05-03T06:12:46.870Z,12.17
2019-05-03T06:15:17.112Z,10.30
2019-05-03T06:17:47.234Z,10.70
2019-05-03T06:20:30.096Z,10.80
2019-05-03T06:23:00.215Z,10.20
2019-05-03T06:25:30.527Z,9.67
2019-05-03T06:28:00.762Z,10.83
2019-05-03T06:30:35.096Z,10.17
2019-05-03T06:33:14.395Z,10.73
2019-05-03T06:35:44.732Z,10.30
2019-05-03T06:38:17.971Z,11.00
2019-05-03T06:40:48.912Z,10.40
2019-05-03T06:43:17.334Z,10.77
2019-05-03T06:45:50.635Z,10.67
2019-05-03T06:48:22.334Z,10.33
2019-05-03T06:50:51.620Z,10.23
2019-05-03T06:53:25.476Z,11.30
2019-05-03T06:55:55.420Z,11.90
2019-05-03T06:58:36.455Z,11.57
2019-05-03T07:01:25.323Z,11.83
2019-05-03T07:03:58.531Z,12.20
2019-05-03T07:06:37.411Z,11.87
2019-05-03T07:09:06.254Z,11.97
2019-05-03T07:11:34.891Z,11.93
2019-05-03T07:14:07.379Z,10.80
2019-05-03T07:16:37.629Z,11.53
2019-05-03T07:19:06.122Z,10.57
2019-05-03T07:21:35.401Z,10.67
2019-05-03T07:24:08.786Z,9.63
2019-05-03T07:26:39.828Z,9.63
2019-05-03T07:29:15.239Z,9.40
2019-05-03T07:31:46.760Z,8.73
2019-05-03T07:34:18.216Z,8.87
2019-05-03T07:36:49.669Z,9.03
2019-05-03T07:39:24.548Z,10.00
2019-05-03T07:41:48.762Z,9.57
2019-05-03T07:44:21.864Z,9.80
2019-05-03T07:46:51.924Z,9.97
2019-05-03T07:49:20.606Z,8.87
2019-05-03T07:51:51.689Z,9.87
2019-05-03T07:54:24.810Z,8.70
2019-05-03T07:57:01.134Z,9.30
2019-05-03T07:59:32.627Z,8.73
2019-05-03T08:02:01.157Z,9.13
2019-05-03T08:04:29.867Z,8.20
2019-05-03T08:07:00.584Z,7.80
2019-05-03T08:09:29.723Z,8.10
2019-05-03T08:11:59.504Z,7.83
2019-05-03T08:14:30.830Z,8.60
2019-05-03T08:16:59.289Z,7.27
2019-05-03T08:19:27.809Z,7.63
2019-05-03T08:21:56.757Z,6.33
2019-05-03T08:24:28.606Z,6.93
2019-05-03T08:27:01.756Z,6.33
2019-05-03T08:29:30.298Z,5.63
2019-05-03T08:32:05.907Z,4.60
2019-05-03T08:34:45.366Z,4.20
2019-05-03T08:37:16.090Z,5.30
2019-05-03T08:39:44.872Z,4.85
2019-05-03T08:42:15.796Z,4.85
2019-05-03T08:44:49.790Z,4.37
2019-05-03T08:47:19.913Z,4.03
2019-05-03T08:49:49.935Z,3.72
2019-05-03T08:52:21.298Z,3.47
2019-05-03T08:54:56.720Z,3.58
2019-05-03T08:57:27.061Z,3.85
2019-05-03T08:59:55.804Z,3.25
2019-05-03T09:02:25.834Z,3.75
2019-05-03T09:04:54.825Z,3.05
2019-05-03T09:07:25.295Z,3.42
2019-05-03T09:10:12.608Z,4.10
2019-05-03T09:12:57.174Z,3.67
2019-05-03T09:15:27.734Z,3.42
2019-05-03T09:18:04.638Z,4.03
2019-05-03T09:20:32.756Z,3.60
2019-05-03T09:23:05.704Z,3.30
2019-05-03T09:25:37.007Z,3.10
2019-05-03T09:28:08.579Z,3.67
2019-05-03T09:30:38.171Z,3.72
2019-05-03T09:33:09.022Z,3.17
2019-05-03T09:35:41.664Z,2.95
2019-05-03T09:38:15.021Z,2.67
2019-05-03T09:40:45.421Z,2.92
2019-05-03T09:43:16.938Z,2.70
2019-05-03T09:45:54.795Z,2.98
2019-05-03T09:48:25.429Z,2.87
2019-05-03T09:50:55.687Z,2.90
2019-05-03T09:53:40.767Z,3.25
2019-05-03T09:56:12.531Z,3.50
2019-05-03T09:58:42.743Z,3.33
2019-05-03T10:01:11.336Z,2.65
2019-05-03T10:03:45.132Z,2.27
2019-05-03T10:06:20.579Z,2.30
2019-05-03T10:08:49.217Z,1.80
2019-05-03T10:11:17.924Z,2.10
2019-05-03T10:13:49.594Z,2.00
2019-05-03T10:16:20.067Z,2.20
2019-05-03T10:18:48.733Z,2.50
2019-05-03T10:21:22.116Z,2.40
2019-05-03T10:23:55.160Z,2.30
2019-05-03T10:26:27.872Z,2.72
2019-05-03T10:28:56.438Z,2.60
2019-05-03T10:31:26.901Z,2.90
2019-05-03T10:33:56.967Z,2.33
2019-05-03T10:36:28.105Z,2.10
2019-05-03T10:38:56.845Z,2.50
2019-05-03T10:41:25.362Z,2.40
2019-05-03T10:43:56.689Z,2.60
2019-05-03T10:46:29.774Z,2.27
2019-05-03T10:48:58.570Z,2.33
2019-05-03T10:51:31.432Z,2.10
2019-05-03T10:54:05.237Z,1.60
2019-05-03T10:56:55.849Z,1.75
2019-05-03T10:59:31.545Z,1.82
2019-05-03T11:02:04.402Z,2.00
2019-05-03T11:04:46.146Z,2.20
2019-05-03T11:07:14.931Z,2.20
2019-05-03T11:09:49.855Z,2.20
2019-05-03T11:12:14.846Z,2.80
2019-05-03T11:14:45.546Z,3.20
2019-05-03T11:17:15.001Z,2.60
2019-05-03T11:19:45.270Z,4.07
2019-05-03T11:22:16.298Z,2.77
2019-05-03T11:24:45.355Z,4.63
2019-05-03T11:27:25.449Z,2.10
2019-05-03T11:29:59.161Z,2.35
2019-05-03T11:32:28.657Z,2.47
2019-05-03T11:35:07.377Z,2.60
2019-05-03T11:37:45.248Z,3.00
2019-05-03T11:40:15.542Z,2.40
2019-05-03T11:42:46.579Z,2.40
2019-05-03T11:45:15.927Z,2.40
2019-05-03T11:47:47.306Z,2.60
2019-05-03T11:50:18.709Z,2.20
2019-05-03T11:52:56.910Z,2.50
2019-05-03T11:55:28.467Z,2.90
2019-05-03T11:57:56.950Z,2.43
2019-05-03T12:00:32.714Z,2.73
2019-05-03T12:03:04.822Z,2.40
2019-05-03T12:05:35.235Z,2.67
2019-05-03T12:08:05.460Z,2.20
2019-05-03T12:10:50.140Z,2.27
2019-05-03T12:13:08.506Z,2.47
2019-05-03T12:15:44.588Z,2.50
2019-05-03T12:18:17.084Z,2.30
2019-05-03T12:20:47.925Z,2.27
2019-05-03T12:23:21.275Z,2.80
2019-05-03T12:25:53.731Z,2.33
2019-05-03T12:28:25.663Z,2.47
2019-05-03T12:30:54.885Z,2.37
2019-05-03T12:33:26.114Z,1.92
2019-05-03T12:35:56.589Z,2.08
2019-05-03T12:38:25.649Z,2.10
2019-05-03T12:40:54.813Z,2.77
2019-05-03T12:43:25.535Z,1.90
2019-05-03T12:45:53.612Z,2.55
2019-05-03T12:48:24.621Z,2.47
2019-05-03T12:50:56.986Z,2.20
2019-05-03T12:53:29.330Z,2.52
2019-05-03T12:55:58.783Z,1.98
2019-05-03T12:58:45.766Z,2.17
2019-05-03T13:01:16.048Z,2.30
2019-05-03T13:03:49.170Z,2.58
2019-05-03T13:06:20.533Z,2.30
2019-05-03T13:08:48.953Z,1.80
2019-05-03T13:11:20.596Z,1.98
2019-05-03T13:13:49.047Z,2.45
2019-05-03T13:16:20.030Z,2.20
2019-05-03T13:18:51.347Z,2.00
2019-05-03T13:21:25.101Z,2.20
2019-05-03T13:23:54.819Z,1.90
2019-05-03T13:26:25.509Z,1.80
2019-05-03T13:28:55.377Z,1.92
2019-05-03T13:31:25.087Z,1.52
2019-05-03T13:33:54.904Z,1.70
2019-05-03T13:36:25.320Z,1.60
2019-05-03T13:38:55.905Z,1.63
2019-05-03T13:41:25.014Z,1.70
2019-05-03T13:43:54.885Z,1.87
2019-05-03T13:46:24.906Z,2.10
2019-05-03T13:48:55.768Z,2.10
2019-05-03T13:51:28.828Z,1.77
2019-05-03T13:54:00.032Z,2.00
2019-05-03T13:56:31.117Z,1.90
2019-05-03T13:58:59.577Z,2.00
2019-05-03T14:01:29.339Z,2.13
2019-05-03T14:04:00.592Z,1.67
2019-05-03T14:06:29.043Z,1.70
2019-05-03T14:08:59.106Z,1.50
2019-05-03T14:11:27.543Z,1.60
2019-05-03T14:13:59.913Z,1.70
2019-05-03T14:16:31.131Z,1.85
2019-05-03T14:19:01.335Z,2.00
2019-05-03T14:21:37.689Z,1.90
2019-05-03T14:24:11.569Z,2.00
2019-05-03T14:26:46.534Z,1.87
2019-05-03T14:29:15.363Z,1.95
2019-05-03T14:31:49.505Z,2.00
2019-05-03T14:34:17.915Z,1.95
2019-05-03T14:36:48.789Z,1.70
2019-05-03T14:39:17.452Z,2.10
2019-05-03T14:41:48.773Z,2.30
2019-05-03T14:44:17.993Z,2.42
2019-05-03T14:46:47.319Z,1.60
2019-05-03T14:49:19.020Z,1.82
2019-05-03T14:51:50.541Z,1.67
2019-05-03T14:54:20.998Z,1.50
2019-05-03T14:57:07.260Z,1.62
2019-05-03T14:59:54.692Z,1.37
2019-05-03T15:02:40.081Z,1.50
2019-05-03T15:04:58.693Z,1.80
2019-05-03T15:07:27.121Z,1.70
2019-05-03T15:09:55.580Z,1.67
2019-05-03T15:12:25.211Z,1.40
2019-05-03T15:14:55.947Z,1.55
2019-05-03T15:17:28.908Z,1.50
2019-05-03T15:19:56.786Z,1.50
2019-05-03T15:22:25.471Z,1.80
2019-05-03T15:24:54.589Z,2.17
2019-05-03T15:27:24.853Z,1.73
2019-05-03T15:29:55.535Z,1.50
2019-05-03T15:32:27.158Z,2.30
2019-05-03T15:34:58.640Z,1.40
2019-05-03T15:37:30.432Z,1.70
2019-05-03T15:40:01.658Z,1.70
2019-05-03T15:42:31.928Z,1.70
2019-05-03T15:45:09.410Z,1.97
2019-05-03T15:47:39.149Z,1.70
2019-05-03T15:50:08.493Z,1.70
2019-05-03T15:52:37.553Z,1.40
2019-05-03T15:55:08.698Z,1.43
2019-05-03T15:57:39.042Z,1.40
2019-05-03T16:00:10.562Z,1.70
2019-05-03T16:02:41.930Z,1.60
2019-05-03T16:05:11.746Z,1.60
2019-05-03T16:07:41.827Z,1.50
2019-05-03T16:10:10.920Z,1.80
2019-05-03T16:12:45.251Z,1.50
2019-05-03T16:15:14.433Z,1.50
2019-05-03T16:17:45.863Z,1.40
2019-05-03T16:20:15.776Z,1.53
2019-05-03T16:22:46.399Z,1.35
2019-05-03T16:25:15.961Z,1.73
2019-05-03T16:27:55.380Z,1.30
2019-05-03T16:30:26.067Z,1.30
2019-05-03T16:32:58.808Z,1.47
2019-05-03T16:35:30.729Z,1.40
2019-05-03T16:38:01.001Z,1.10
2019-05-03T16:40:29.436Z,1.53
2019-05-03T16:42:57.857Z,1.77
2019-05-03T16:45:28.740Z,1.40
2019-05-03T16:47:57.279Z,1.53
2019-05-03T16:50:30.262Z,1.93
2019-05-03T16:53:05.437Z,1.20
2019-05-03T16:55:32.278Z,1.47
2019-05-03T16:58:01.088Z,1.60
2019-05-03T17:00:30.111Z,1.80
2019-05-03T17:03:10.432Z,1.33
2019-05-03T17:05:49.676Z,1.80
2019-05-03T17:08:30.576Z,1.40
2019-05-03T17:11:05.520Z,2.00
2019-05-03T17:13:34.636Z,1.80
2019-05-03T17:16:05.116Z,1.37
2019-05-03T17:18:39.625Z,2.10
2019-05-03T17:21:08.007Z,1.90
2019-05-03T17:23:39.389Z,1.63
2019-05-03T17:26:07.882Z,2.30
2019-05-03T17:28:39.663Z,1.50
2019-05-03T17:31:11.118Z,1.80
2019-05-03T17:33:50.610Z,1.60
2019-05-03T17:36:12.610Z,1.50
2019-05-03T17:38:44.320Z,1.43
2019-05-03T17:41:17.573Z,1.60
2019-05-03T17:43:50.586Z,2.13
2019-05-03T17:46:18.988Z,1.50
2019-05-03T17:48:47.430Z,1.53
2019-05-03T17:51:35.167Z,1.33
2019-05-03T17:54:05.635Z,1.60
2019-05-03T17:56:35.673Z,1.50
2019-05-03T17:59:08.656Z,1.73
2019-05-03T18:01:55.451Z,1.90
2019-05-03T18:04:26.451Z,1.97
2019-05-03T18:06:56.486Z,1.87
2019-05-03T18:09:29.519Z,1.80
2019-05-03T18:11:59.690Z,2.10
2019-05-03T18:14:31.353Z,1.83
2019-05-03T18:16:59.793Z,1.60
2019-05-03T18:19:35.843Z,2.30
2019-05-03T18:22:06.819Z,1.60
2019-05-03T18:24:39.714Z,1.60
2019-05-03T18:27:08.279Z,1.63
2019-05-03T18:29:36.684Z,1.57
2019-05-03T18:32:06.801Z,1.70
2019-05-03T18:34:35.519Z,1.80
2019-05-03T18:37:07.131Z,1.90
2019-05-03T18:39:35.893Z,2.10
2019-05-03T18:42:07.553Z,2.00
2019-05-03T18:44:37.786Z,3.10
2019-05-03T18:47:07.858Z,4.20
2019-05-03T18:49:44.758Z,3.97
2019-05-03T18:52:19.637Z,3.83
2019-05-03T18:54:49.757Z,3.50
2019-05-03T18:57:18.587Z,3.83
2019-05-03T18:59:50.551Z,3.07
2019-05-03T19:02:22.035Z,3.37
2019-05-03T19:04:54.442Z,4.10
2019-05-03T19:07:40.705Z,5.90
2019-05-03T19:10:17.918Z,5.37
2019-05-03T19:12:48.213Z,5.00
2019-05-03T19:15:17.050Z,4.63
2019-05-03T19:17:47.765Z,3.50
2019-05-03T19:20:20.844Z,3.23
2019-05-03T19:22:52.033Z,3.30
2019-05-03T19:25:22.499Z,3.93
2019-05-03T19:27:56.329Z,4.40
2019-05-03T19:30:24.745Z,4.67
2019-05-03T19:32:59.942Z,4.63
2019-05-03T19:35:31.031Z,4.17
2019-05-03T19:38:01.105Z,3.60
2019-05-03T19:40:29.554Z,2.53
2019-05-03T19:42:57.974Z,2.40
2019-05-03T19:45:27.578Z,2.40
2019-05-03T19:47:57.512Z,2.47
2019-05-03T19:50:29.018Z,2.20
2019-05-03T19:52:59.085Z,1.93
2019-05-03T19:55:28.749Z,2.20
2019-05-03T19:57:57.200Z,2.30
2019-05-03T20:00:27.274Z,2.07
2019-05-03T20:03:00.105Z,2.27
2019-05-03T20:05:36.360Z,2.47
2019-05-03T20:08:09.375Z,2.47
2019-05-03T20:10:40.658Z,2.40
2019-05-03T20:13:09.320Z,2.60
2019-05-03T20:15:40.090Z,2.20
2019-05-03T20:18:08.979Z,2.50
2019-05-03T20:20:40.134Z,3.17
2019-05-03T20:23:08.644Z,8.00
2019-05-03T20:25:37.048Z,7.00
2019-05-03T20:28:05.663Z,6.20
2019-05-03T20:30:34.940Z,4.70
2019-05-03T20:33:05.397Z,3.53
2019-05-03T20:35:45.181Z,3.37
2019-05-03T20:38:11.670Z,2.80
2019-05-03T20:40:40.101Z,2.70
2019-05-03T20:43:22.106Z,2.77
2019-05-03T20:45:52.190Z,2.37
2019-05-03T20:48:22.473Z,3.77
2019-05-03T20:50:50.889Z,3.00
2019-05-03T20:53:22.256Z,2.83
2019-05-03T20:55:54.601Z,2.70
2019-05-03T20:58:25.096Z,2.83
2019-05-03T21:00:58.077Z,3.23
2019-05-03T21:03:26.607Z,3.30
2019-05-03T21:05:55.327Z,3.40
2019-05-03T21:08:34.494Z,3.70
2019-05-03T21:11:10.591Z,3.83
2019-05-03T21:13:42.496Z,3.63
2019-05-03T21:16:12.396Z,3.80
2019-05-03T21:18:42.419Z,3.10
2019-05-03T21:21:12.600Z,3.40
2019-05-03T21:23:44.841Z,3.47
2019-05-03T21:26:16.602Z,3.40
2019-05-03T21:28:45.269Z,3.20
2019-05-03T21:31:15.669Z,3.23
2019-05-03T21:33:44.500Z,4.30
2019-05-03T21:36:17.925Z,4.20
2019-05-03T21:38:46.401Z,4.50
2019-05-03T21:41:17.872Z,4.17
2019-05-03T21:43:46.344Z,4.23
2019-05-03T21:46:19.260Z,4.63
2019-05-03T21:48:52.471Z,4.97
2019-05-03T21:51:20.929Z,5.20
2019-05-03T21:53:52.373Z,5.73
2019-05-03T21:56:25.002Z,4.87
2019-05-03T21:58:56.565Z,5.40
2019-05-03T22:01:25.961Z,4.70
2019-05-03T22:03:57.783Z,4.60
2019-05-03T22:06:26.487Z,5.20
2019-05-03T22:08:55.514Z,4.87
2019-05-03T22:11:26.051Z,5.47
2019-05-03T22:13:58.855Z,5.27
2019-05-03T22:16:28.915Z,5.87
2019-05-03T22:18:57.329Z,5.57
2019-05-03T22:21:27.591Z,5.67
2019-05-03T22:24:16.961Z,6.63
2019-05-03T22:26:52.995Z,5.93
2019-05-03T22:29:27.128Z,5.57
2019-05-03T22:31:57.211Z,6.37
2019-05-03T22:34:35.036Z,6.20
2019-05-03T22:37:06.892Z,6.10
2019-05-03T22:39:35.288Z,6.73
2019-05-03T22:42:04.506Z,6.93
2019-05-03T22:44:36.421Z,7.53
2019-05-03T22:47:05.563Z,6.23
2019-05-03T22:49:37.631Z,8.43
2019-05-03T22:52:08.371Z,7.73
2019-05-03T22:54:40.369Z,7.83
2019-05-03T22:57:08.776Z,8.00
2019-05-03T22:59:44.891Z,7.10
2019-05-03T23:02:16.725Z,7.23
2019-05-03T23:04:45.122Z,7.60
2019-05-03T23:07:14.857Z,8.27
2019-05-03T23:09:46.844Z,8.23
2019-05-03T23:12:17.990Z,6.67
2019-05-03T23:14:49.049Z,6.43
2019-05-03T23:17:21.117Z,6.40
2019-05-03T23:19:51.195Z,6.83
2019-05-03T23:22:21.376Z,6.47
2019-05-03T23:24:51.439Z,6.63
2019-05-03T23:27:24.905Z,6.23
2019-05-03T23:29:56.284Z,6.03
2019-05-03T23:32:31.440Z,6.70
2019-05-03T23:35:02.050Z,7.10
2019-05-03T23:37:30.662Z,6.60
2019-05-03T23:40:05.911Z,6.23
2019-05-03T23:42:35.972Z,7.57
2019-05-03T23:45:06.245Z,7.97
2019-05-03T23:47:45.239Z,6.83
2019-05-03T23:50:22.541Z,7.43
2019-05-03T23:52:54.483Z,8.10
2019-05-03T23:55:25.352Z,7.67
2019-05-03T23:58:04.835Z,8.17
